DEA4 VNLK-VNLK
Flight info
| Callsign | DEA4 |
|---|---|
| Flight time | 0h 1m |
| Altitude | 5000 |
| Route | VFR |
| Aircraft | C208/M-SDE3/LB1 |
Departure
| Time | 2026-04-10 23:24 |
|---|---|
| Airport | Tenzing-Hillary Airport (VNLK) |
Arrival
| Time | 2026-04-10 23:26 |
|---|---|
| Airport | Tenzing-Hillary Airport (VNLK) |
| Time | Latitude | Longitude | Altitude | Speed | Heading |
|---|---|---|---|---|---|
| 2026-04-10 23:08 | 27.68748 | 86.73200 | 9408 ft | 0 kts | 39° |
| 2026-04-10 23:15 | 27.68774 | 86.73192 | 9408 ft | 1 kts | 282° |
| 2026-04-10 23:16 | 27.68772 | 86.73174 | 9408 ft | 1 kts | 274° |
| 2026-04-10 23:16 | 27.68774 | 86.73166 | 9407 ft | 6 kts | 283° |
| 2026-04-10 23:16 | 27.68777 | 86.73134 | 9406 ft | 0 kts | 255° |
| 2026-04-10 23:17 | 27.68741 | 86.73067 | 9377 ft | 43 kts | 238° |
| 2026-04-10 23:17 | 27.68421 | 86.72492 | 9318 ft | 105 kts | 232° |
| 2026-04-10 23:17 | 27.67821 | 86.71828 | 9381 ft | 135 kts | 218° |
| 2026-04-10 23:17 | 27.67036 | 86.71225 | 9427 ft | 156 kts | 215° |
| 2026-04-10 23:18 | 27.66104 | 86.70355 | 8902 ft | 194 kts | 222° |
| 2026-04-10 23:18 | 27.65142 | 86.69657 | 9442 ft | 165 kts | 208° |
| 2026-04-10 23:18 | 27.64186 | 86.69076 | 9776 ft | 156 kts | 204° |
| 2026-04-10 23:18 | 27.63140 | 86.68588 | 9784 ft | 168 kts | 202° |
| 2026-04-10 23:19 | 27.62021 | 86.68191 | 9674 ft | 171 kts | 179° |
| 2026-04-10 23:19 | 27.61023 | 86.68918 | 9213 ft | 183 kts | 110° |
| 2026-04-10 23:19 | 27.61633 | 86.69880 | 8792 ft | 177 kts | 2° |
| 2026-04-10 23:19 | 27.62684 | 86.69304 | 8281 ft | 146 kts | 332° |
| 2026-04-10 23:20 | 27.63595 | 86.69229 | 8068 ft | 127 kts | 18° |
| 2026-04-10 23:20 | 27.64381 | 86.69593 | 7842 ft | 118 kts | 32° |
| 2026-04-10 23:20 | 27.65112 | 86.69934 | 7764 ft | 112 kts | 18° |
| 2026-04-10 23:20 | 27.65841 | 86.70210 | 7910 ft | 114 kts | 11° |
| 2026-04-10 23:21 | 27.66641 | 86.70420 | 8035 ft | 117 kts | 15° |
| 2026-04-10 23:21 | 27.67352 | 86.70712 | 8256 ft | 118 kts | 44° |
| 2026-04-10 23:21 | 27.67962 | 86.71304 | 8303 ft | 108 kts | 20° |
| 2026-04-10 23:21 | 27.68351 | 86.71794 | 8594 ft | 102 kts | 101° |
| 2026-04-10 23:22 | 27.68204 | 86.72512 | 9010 ft | 101 kts | 52° |
| 2026-04-10 23:22 | 27.68742 | 86.72355 | 9276 ft | 109 kts | 281° |
| 2026-04-10 23:22 | 27.68545 | 86.71311 | 8637 ft | 146 kts | 256° |
| 2026-04-10 23:22 | 27.68971 | 86.70742 | 8414 ft | 132 kts | 59° |
| 2026-04-10 23:23 | 27.68409 | 86.71576 | 8472 ft | 122 kts | 114° |
| 2026-04-10 23:23 | 27.68508 | 86.72337 | 9080 ft | 92 kts | 110° |
| 2026-04-10 23:23 | 27.68104 | 86.72476 | 9669 ft | 150 kts | 279° |
| 2026-04-10 23:23 | 27.68082 | 86.71281 | 9592 ft | 163 kts | 247° |
| 2026-04-10 23:24 | 27.67409 | 86.70336 | 9803 ft | 153 kts | 229° |
| 2026-04-10 23:24 | 27.67341 | 86.69439 | 10640 ft | 99 kts | 304° |
| 2026-04-10 23:24 | 27.67973 | 86.68968 | 10932 ft | 110 kts | 7° |
| 2026-04-10 23:24 | 27.68284 | 86.69582 | 11118 ft | 114 kts | 109° |
| 2026-04-10 23:25 | 27.67905 | 86.70556 | 9330 ft | 163 kts | 107° |
| 2026-04-10 23:25 | 27.68077 | 86.71714 | 8592 ft | 129 kts | 61° |
| 2026-04-10 23:25 | 27.68431 | 86.72498 | 9048 ft | 105 kts | 40° |
| 2026-04-10 23:25 | 27.68739 | 86.73062 | 9378 ft | 53 kts | 57° |
| 2026-04-10 23:26 | 27.68798 | 86.73193 | 9407 ft | 7 kts | 111° |
| 2026-04-10 23:26 | 27.68798 | 86.73194 | 9407 ft | 0 kts | 101° |
| 2026-04-10 23:26 | 27.68800 | 86.73180 | 9406 ft | 0 kts | 101° |
| 2026-04-10 23:27 | 27.68799 | 86.73184 | 9406 ft | 6 kts | 124° |
| 2026-04-10 23:27 | 27.68774 | 86.73133 | 9407 ft | 17 kts | 245° |
| 2026-04-10 23:27 | 27.68577 | 86.72750 | 9249 ft | 100 kts | 240° |
| 2026-04-10 23:27 | 27.68122 | 86.71965 | 9286 ft | 135 kts | 227° |
| 2026-04-10 23:28 | 27.67272 | 86.71407 | 9567 ft | 143 kts | 205° |
| 2026-04-10 23:28 | 27.66535 | 86.70642 | 9598 ft | 158 kts | 257° |
| 2026-04-10 23:28 | 27.66979 | 86.69652 | 10084 ft | 139 kts | 324° |
| 2026-04-10 23:28 | 27.67787 | 86.69249 | 10753 ft | 117 kts | 351° |
| 2026-04-10 23:29 | 27.68469 | 86.69506 | 10975 ft | 117 kts | 59° |
| 2026-04-10 23:29 | 27.68411 | 86.70482 | 9193 ft | 123 kts | 90° |
| 2026-04-10 23:29 | 27.68834 | 86.71001 | 8422 ft | 142 kts | 106° |
| 2026-04-10 23:29 | 27.68366 | 86.71645 | 9079 ft | 92 kts | 136° |
| 2026-04-10 23:30 | 27.68296 | 86.72251 | 9131 ft | 87 kts | 52° |
| 2026-04-10 23:30 | 27.68596 | 86.72786 | 9220 ft | 72 kts | 60° |
| 2026-04-10 23:30 | 27.68770 | 86.73124 | 9407 ft | 24 kts | 67° |
| 2026-04-10 23:30 | 27.68747 | 86.73164 | 9409 ft | 5 kts | 287° |
| 2026-04-10 23:31 | 27.68782 | 86.73155 | 9406 ft | 9 kts | 297° |
| 2026-04-10 23:31 | 27.68658 | 86.72896 | 9281 ft | 83 kts | 241° |
| 2026-04-10 23:31 | 27.68262 | 86.72268 | 9403 ft | 114 kts | 231° |
| 2026-04-10 23:31 | 27.67671 | 86.71431 | 9417 ft | 145 kts | 233° |
| 2026-04-10 23:32 | 27.67089 | 86.70424 | 9468 ft | 159 kts | 245° |
| 2026-04-10 23:32 | 27.66902 | 86.69210 | 9769 ft | 150 kts | 287° |
| 2026-04-10 23:32 | 27.67605 | 86.68627 | 10546 ft | 114 kts | 354° |
| 2026-04-10 23:32 | 27.68179 | 86.69106 | 11098 ft | 101 kts | 59° |
| 2026-04-10 23:33 | 27.68449 | 86.69917 | 10583 ft | 132 kts | 99° |
| 2026-04-10 23:33 | 27.68059 | 86.70997 | 9558 ft | 147 kts | 114° |
| 2026-04-10 23:33 | 27.68163 | 86.71987 | 9123 ft | 121 kts | 56° |
| 2026-04-10 23:33 | 27.68553 | 86.72706 | 9191 ft | 87 kts | 57° |
| 2026-04-10 23:34 | 27.68767 | 86.73114 | 9405 ft | 30 kts | 59° |
| 2026-04-10 23:34 | 27.68796 | 86.73184 | 9406 ft | 0 kts | 148° |
| 2026-04-10 23:34 | 27.68790 | 86.73155 | 9406 ft | 17 kts | 279° |
| 2026-04-10 23:34 | 27.68778 | 86.73137 | 9406 ft | 3 kts | 237° |
| 2026-04-10 23:35 | 27.68791 | 86.73163 | 9406 ft | 10 kts | 242° |
| 2026-04-10 23:35 | 27.68799 | 86.73180 | 9406 ft | 1 kts | 240° |
| 2026-04-10 23:35 | 27.68803 | 86.73187 | 9407 ft | 0 kts | 240° |
| 2026-04-10 23:35 | 27.68762 | 86.73107 | 9404 ft | 43 kts | 240° |
| 2026-04-10 23:36 | 27.68515 | 86.72587 | 9352 ft | 99 kts | 257° |
| 2026-04-10 23:36 | 27.68534 | 86.71772 | 9579 ft | 117 kts | 290° |
| 2026-04-10 23:36 | 27.68839 | 86.70921 | 9950 ft | 122 kts | 291° |
| 2026-04-10 23:36 | 27.68605 | 86.70115 | 10161 ft | 135 kts | 195° |
| 2026-04-10 23:37 | 27.67879 | 86.70776 | 10226 ft | 154 kts | 98° |
| 2026-04-10 23:37 | 27.68458 | 86.71817 | 10100 ft | 175 kts | 42° |
| 2026-04-10 23:37 | 27.69176 | 86.72696 | 10789 ft | 122 kts | 58° |
| 2026-04-10 23:37 | 27.69294 | 86.73498 | 11231 ft | 103 kts | 145° |
| 2026-04-10 23:38 | 27.68924 | 86.73368 | 10150 ft | 76 kts | 234° |
| 2026-04-10 23:38 | 27.68595 | 86.72779 | 9218 ft | 52 kts | 239° |
| 2026-04-10 23:38 | 27.68575 | 86.72519 | 9070 ft | 557 kts | 348° |
| 2026-04-10 23:38 | 27.68346 | 86.71870 | 9318 ft | 1148 kts | 164° |
| 2026-04-10 23:39 | 27.68758 | 86.73621 | 10004 ft | 0 kts | 164° |
| 2026-04-10 23:39 | 27.68585 | 86.71063 | 10383 ft | 59 kts | 169° |
| 2026-04-10 23:39 | 27.68261 | 86.71651 | 9547 ft | 126 kts | 85° |
| 2026-04-10 23:39 | 27.68438 | 86.72435 | 9211 ft | 89 kts | 62° |
| 2026-04-10 23:40 | 27.68698 | 86.72978 | 9324 ft | 52 kts | 62° |
| 2026-04-10 23:40 | 27.68762 | 86.73121 | 9406 ft | 5 kts | 178° |
| 2026-04-10 23:40 | 27.68770 | 86.73064 | 9383 ft | 9 kts | 37° |
| 2026-04-10 23:40 | 27.68778 | 86.73072 | 9383 ft | 0 kts | 265° |
| 2026-04-10 23:41 | 27.68771 | 86.73056 | 9382 ft | 8 kts | 229° |
| 2026-04-10 23:41 | 27.68761 | 86.73048 | 9383 ft | 5 kts | 172° |
| 2026-04-10 23:41 | 27.68691 | 86.72974 | 9327 ft | 54 kts | 240° |
| 2026-04-10 23:41 | 27.68329 | 86.72316 | 9116 ft | 126 kts | 234° |
| 2026-04-10 23:42 | 27.67741 | 86.71548 | 9015 ft | 136 kts | 226° |
| 2026-04-10 23:42 | 27.67039 | 86.70851 | 8856 ft | 134 kts | 220° |
| 2026-04-10 23:42 | 27.66904 | 86.70099 | 8974 ft | 111 kts | 0° |
| 2026-04-10 23:42 | 27.67467 | 86.70595 | 8945 ft | 132 kts | 62° |
| 2026-04-10 23:43 | 27.67914 | 86.71502 | 8984 ft | 123 kts | 60° |
| 2026-04-10 23:43 | 27.68341 | 86.72291 | 9123 ft | 116 kts | 57° |
| 2026-04-10 23:43 | 27.68706 | 86.73005 | 9341 ft | 78 kts | 59° |
| 2026-04-10 23:43 | 27.68809 | 86.73188 | 9407 ft | 0 kts | 28° |
| 2026-04-10 23:44 | 27.68783 | 86.73169 | 9406 ft | 9 kts | 20° |
| 2026-04-10 23:44 | 27.68794 | 86.73182 | 9406 ft | 1 kts | 184° |
| 2026-04-10 23:44 | 27.68781 | 86.73146 | 9406 ft | 21 kts | 240° |
| 2026-04-10 23:45 | 27.68631 | 86.72860 | 9251 ft | 75 kts | 238° |
| 2026-04-10 23:45 | 27.68326 | 86.72043 | 8791 ft | 148 kts | 308° |
| 2026-04-10 23:45 | 27.68759 | 86.71416 | 8160 ft | 178 kts | 201° |
| 2026-04-10 23:45 | 27.67277 | 86.71936 | 8204 ft | 170 kts | 161° |
| 2026-04-10 23:46 | 27.67398 | 86.71699 | 8300 ft | 147 kts | 77° |
| 2026-04-10 23:46 | 27.67810 | 86.72197 | 9186 ft | 119 kts | 2° |
| 2026-04-10 23:46 | 27.68587 | 86.72782 | 9227 ft | 152 kts | 58° |
| 2026-04-10 23:46 | 27.68974 | 86.72809 | 9586 ft | 128 kts | 279° |
| 2026-04-10 23:47 | 27.68555 | 86.72191 | 9284 ft | 150 kts | 108° |
| 2026-04-10 23:47 | 27.68751 | 86.73083 | 9428 ft | 87 kts | 62° |
| 2026-04-10 23:47 | 27.69062 | 86.73268 | 9805 ft | 383 kts | 110° |
| 2026-04-10 23:47 | 27.68879 | 86.73092 | 9701 ft | 157 kts | 194° |
| 2026-04-10 23:48 | 27.68090 | 86.72092 | 8939 ft | 185 kts | 224° |
| 2026-04-10 23:48 | 27.68406 | 86.72020 | 8849 ft | 181 kts | 133° |
| 2026-04-10 23:48 | 27.68578 | 86.72788 | 9326 ft | 124 kts | 49° |
| 2026-04-10 23:48 | 27.68754 | 86.73096 | 9398 ft | 5 kts | 134° |
| 2026-04-10 23:49 | 27.68767 | 86.73111 | 9403 ft | 4 kts | 245° |
| 2026-04-10 23:49 | 27.68800 | 86.73181 | 9407 ft | 0 kts | 238° |
| 2026-04-10 23:49 | 27.68786 | 86.73154 | 9406 ft | 17 kts | 239° |
| 2026-04-10 23:49 | 27.68721 | 86.73049 | 9363 ft | 0 kts | 110° |
| 2026-04-10 23:50 | 27.68735 | 86.73044 | 9366 ft | 4 kts | 216° |
| 2026-04-10 23:50 | 27.68703 | 86.72992 | 9335 ft | 0 kts | 238° |